Time;durP1;ratioP1;P1;durP2;ratioP2;P2;SDS_P1;SDS_P2;PMS_P1;PMS_P2;Temp;Humidity;BMP_temperature;BMP_pressure;BME280_temperature;BME280_humidity;BME280_pressure;Samples;Min_cycle;Max_cycle;Signal;HPM_P1;HPM_P2
2023/10/02 00:01:47;;;;;;;3.70;2.20;;;15.80;99.90;;;;;;5089324;28;20427;-79
2023/10/02 00:04:18;;;;;;;4.53;2.73;;;15.80;99.90;;;;;;5087639;28;20425;-85
2023/10/02 00:06:44;;;;;;;3.43;2.87;;;15.80;99.90;;;;;;5089430;28;20400;-79
2023/10/02 00:09:11;;;;;;;8.50;2.70;;;15.80;99.90;;;;;;5088881;28;20882;-80
2023/10/02 00:11:39;;;;;;;6.63;3.20;;;15.80;99.90;;;;;;5087878;28;20409;-85
2023/10/02 00:14:23;;;;;;;3.47;2.43;;;15.80;99.90;;;;;;5087489;28;20791;-86
2023/10/02 00:17:00;;;;;;;4.43;2.90;;;15.70;99.90;;;;;;5087858;28;20435;-86
2023/10/02 00:19:36;;;;;;;4.23;2.70;;;15.70;99.90;;;;;;5087867;28;20603;-85
2023/10/02 00:22:08;;;;;;;3.83;2.73;;;15.70;99.90;;;;;;5087580;28;20421;-85
2023/10/02 00:24:39;;;;;;;2.80;2.27;;;15.70;99.90;;;;;;5087018;28;20455;-85
2023/10/02 00:27:09;;;;;;;4.93;2.40;;;15.60;99.90;;;;;;5087622;28;20424;-80
2023/10/02 00:29:51;;;;;;;5.30;2.90;;;15.60;99.90;;;;;;5087272;28;20840;-79
2023/10/02 00:32:19;;;;;;;3.97;2.60;;;15.60;99.90;;;;;;5089343;28;20878;-79
2023/10/02 00:34:50;;;;;;;3.77;2.47;;;15.50;99.90;;;;;;5087230;28;20485;-84
2023/10/02 00:37:16;;;;;;;6.00;2.77;;;15.50;99.90;;;;;;5087724;28;20423;-85
2023/10/02 00:39:47;;;;;;;3.57;2.43;;;15.50;99.90;;;;;;5087118;28;20976;-80
2023/10/02 00:42:17;;;;;;;5.10;3.07;;;15.50;99.90;;;;;;5087434;28;20230;-79
2023/10/02 00:44:54;;;;;;;4.67;2.70;;;15.50;99.90;;;;;;5087128;28;20455;-85
2023/10/02 00:47:41;;;;;;;3.03;2.53;;;15.40;99.90;;;;;;5087214;28;20689;-79
2023/10/02 00:50:13;;;;;;;6.07;2.77;;;15.50;99.90;;;;;;5086401;28;20440;-85
2023/10/02 00:52:42;;;;;;;3.47;2.80;;;15.40;99.90;;;;;;5086591;28;20929;-85
2023/10/02 00:55:10;;;;;;;4.23;2.60;;;15.40;99.90;;;;;;5088221;28;20994;-85
2023/10/02 00:57:39;;;;;;;3.20;2.37;;;15.40;99.90;;;;;;5086879;28;20470;-80
2023/10/02 01:00:16;;;;;;;3.93;2.77;;;15.30;99.90;;;;;;5087846;28;20923;-79
2023/10/02 01:02:50;;;;;;;2.40;2.07;;;15.30;99.90;;;;;;5088314;28;20424;-80
2023/10/02 01:05:21;;;;;;;5.27;2.67;;;15.30;99.90;;;;;;5088588;28;20801;-80
2023/10/02 01:07:53;;;;;;;5.47;3.30;;;15.30;99.90;;;;;;5088138;28;20437;-80
2023/10/02 01:10:19;;;;;;;4.20;3.27;;;15.30;99.90;;;;;;5086564;28;20433;-79
2023/10/02 01:12:49;;;;;;;5.30;3.00;;;15.30;99.90;;;;;;5086749;28;20405;-85
2023/10/02 01:15:20;;;;;;;6.40;2.53;;;15.30;99.90;;;;;;5087766;28;20838;-84
2023/10/02 01:17:50;;;;;;;4.10;2.93;;;15.20;99.90;;;;;;5086851;28;20979;-84
2023/10/02 01:20:32;;;;;;;2.87;2.10;;;15.20;99.90;;;;;;5087744;28;20499;-80
2023/10/02 01:23:25;;;;;;;4.90;2.80;;;15.20;99.90;;;;;;5087811;28;20598;-85
2023/10/02 01:25:50;;;;;;;2.97;2.00;;;15.30;99.90;;;;;;5086540;28;20433;-85
2023/10/02 01:28:20;;;;;;;3.97;2.30;;;15.20;99.90;;;;;;5086568;28;20443;-84
2023/10/02 01:30:47;;;;;;;3.47;2.40;;;15.20;99.90;;;;;;5086266;28;20456;-80
2023/10/02 01:33:14;;;;;;;4.67;2.70;;;15.30;99.90;;;;;;5087757;28;20830;-79
2023/10/02 01:35:48;;;;;;;4.10;2.93;;;15.30;99.90;;;;;;5087585;28;20425;-84
2023/10/02 01:38:37;;;;;;;4.50;2.60;;;15.30;99.90;;;;;;5087126;28;20496;-79
2023/10/02 01:41:05;;;;;;;2.87;2.30;;;15.30;99.90;;;;;;5085683;28;20464;-80
2023/10/02 01:43:45;;;;;;;2.80;2.50;;;15.20;99.90;;;;;;5087144;28;20941;-80
2023/10/02 01:46:17;;;;;;;3.53;2.83;;;15.20;99.90;;;;;;5087378;28;20417;-83
2023/10/02 01:48:50;;;;;;;5.53;3.20;;;15.20;99.90;;;;;;5085895;28;20436;-80
2023/10/02 01:51:25;;;;;;;7.90;2.43;;;15.20;99.90;;;;;;5086294;28;20874;-85
2023/10/02 01:54:03;;;;;;;8.43;2.80;;;15.20;99.90;;;;;;5086925;28;20514;-79
2023/10/02 01:56:31;;;;;;;4.07;2.70;;;15.20;99.90;;;;;;5085390;28;20436;-85
2023/10/02 01:59:10;;;;;;;5.90;3.70;;;15.20;99.90;;;;;;5087183;28;20421;-81
2023/10/02 02:01:51;;;;;;;4.50;3.80;;;15.20;99.90;;;;;;5086050;28;20424;-84
2023/10/02 02:04:28;;;;;;;4.10;2.80;;;15.20;99.90;;;;;;5087197;28;20761;-79
2023/10/02 02:06:56;;;;;;;3.97;2.80;;;15.10;99.90;;;;;;5086705;28;20389;-79
2023/10/02 02:09:37;;;;;;;2.90;2.37;;;15.10;99.90;;;;;;5086549;28;20427;-79
2023/10/02 02:12:07;;;;;;;2.93;2.60;;;15.10;99.90;;;;;;5085689;28;20409;-80
2023/10/02 02:14:52;;;;;;;4.57;2.70;;;15.10;99.90;;;;;;5087101;28;20937;-84
2023/10/02 02:17:20;;;;;;;4.93;3.00;;;15.00;99.90;;;;;;5086938;28;20755;-80
2023/10/02 02:19:49;;;;;;;9.33;2.50;;;15.00;99.90;;;;;;5085373;28;20480;-84
2023/10/02 02:22:19;;;;;;;5.77;2.67;;;15.00;99.90;;;;;;5085452;28;20443;-84
2023/10/02 02:24:46;;;;;;;3.60;2.63;;;15.00;99.90;;;;;;5086131;28;20826;-80
2023/10/02 02:27:12;;;;;;;6.60;2.60;;;15.00;99.90;;;;;;5086813;28;20913;-80
2023/10/02 02:29:38;;;;;;;5.60;3.20;;;15.00;99.90;;;;;;5084954;28;21069;-80
2023/10/02 02:32:06;;;;;;;6.20;2.97;;;15.00;99.90;;;;;;5086906;28;20967;-84
2023/10/02 02:34:32;;;;;;;5.70;3.33;;;15.00;99.90;;;;;;5085159;28;20448;-79
2023/10/02 02:36:59;;;;;;;5.80;3.17;;;15.00;99.90;;;;;;5086719;28;20508;-84
2023/10/02 02:39:27;;;;;;;4.60;2.90;;;15.00;99.90;;;;;;5084467;28;20808;-78
2023/10/02 02:44:46;;;;;;;5.77;3.83;;;14.90;99.90;;;;;;5086990;28;20464;-84
2023/10/02 02:47:14;;;;;;;7.90;4.07;;;14.90;99.90;;;;;;5086317;28;20917;-79
2023/10/02 02:49:51;;;;;;;7.60;3.50;;;14.90;99.90;;;;;;5084921;28;20448;-79
2023/10/02 02:52:17;;;;;;;6.63;3.10;;;15.00;99.90;;;;;;5085229;28;20419;-79
2023/10/02 02:54:59;;;;;;;8.33;3.33;;;14.90;99.90;;;;;;5085710;28;20531;-84
2023/10/02 02:57:31;;;;;;;7.17;3.70;;;15.00;99.90;;;;;;5085435;28;20428;-79
2023/10/02 03:02:52;;;;;;;6.87;3.57;;;14.90;99.90;;;;;;5086423;28;20388;-79
2023/10/02 03:05:21;;;;;;;3.10;2.53;;;14.90;99.90;;;;;;5084832;28;20941;-86
2023/10/02 03:07:49;;;;;;;4.47;3.07;;;14.90;99.90;;;;;;5086140;28;20480;-86
2023/10/02 03:10:16;;;;;;;5.10;3.27;;;14.90;99.90;;;;;;5086432;28;20945;-86
2023/10/02 03:12:48;;;;;;;6.43;3.70;;;14.80;99.90;;;;;;5084652;28;20796;-86
2023/10/02 03:15:17;;;;;;;6.30;3.53;;;14.80;99.90;;;;;;5084608;28;20437;-88
2023/10/02 03:17:44;;;;;;;4.43;3.03;;;14.80;99.90;;;;;;5084595;28;20848;-79
2023/10/02 03:20:22;;;;;;;9.33;3.97;;;14.90;99.90;;;;;;5085795;28;21083;-80
2023/10/02 03:22:53;;;;;;;9.73;4.13;;;15.00;99.90;;;;;;5085172;28;20788;-79
2023/10/02 03:25:45;;;;;;;7.17;3.80;;;15.00;99.90;;;;;;5083981;28;20441;-88
2023/10/02 03:28:32;;;;;;;5.03;3.70;;;15.00;99.90;;;;;;5102104;28;20423;-87
2023/10/02 03:30:59;;;;;;;5.53;3.03;;;15.00;99.90;;;;;;5104247;28;20519;-87
2023/10/02 03:33:30;;;;;;;6.37;3.67;;;15.00;99.90;;;;;;5104838;28;20427;-79
2023/10/02 03:36:10;;;;;;;5.03;3.00;;;15.00;99.90;;;;;;5104638;28;20544;-80
2023/10/02 03:38:41;;;;;;;3.50;3.20;;;15.00;99.90;;;;;;5105574;28;20876;-86
2023/10/02 03:41:11;;;;;;;9.53;3.00;;;15.00;99.90;;;;;;5104254;28;20562;-80
2023/10/02 03:43:48;;;;;;;7.67;3.17;;;15.00;99.90;;;;;;5105983;28;20427;-80
2023/10/02 03:46:35;;;;;;;8.03;3.40;;;15.00;99.90;;;;;;5104939;28;20446;-88
2023/10/02 03:49:03;;;;;;;5.20;3.03;;;15.10;99.90;;;;;;5105134;28;20455;-79
2023/10/02 03:51:36;;;;;;;7.53;3.83;;;15.10;99.90;;;;;;5106372;28;20765;-80
2023/10/02 03:54:18;;;;;;;3.93;3.30;;;15.10;99.90;;;;;;5105879;28;20838;-79
2023/10/02 03:56:55;;;;;;;7.00;3.33;;;15.10;99.90;;;;;;5104886;28;20400;-87
2023/10/02 03:59:28;;;;;;;7.93;3.80;;;15.10;99.90;;;;;;5104945;28;20434;-89
2023/10/02 04:02:23;;;;;;;6.23;3.40;;;15.10;99.90;;;;;;5104403;28;20392;-80
2023/10/02 04:04:43;;;;;;;4.87;3.60;;;15.10;99.90;;;;;;5106079;28;20856;-80
2023/10/02 04:07:11;;;;;;;6.03;3.50;;;15.10;99.90;;;;;;5108322;28;20865;-80
2023/10/02 04:09:37;;;;;;;6.17;3.67;;;15.10;99.90;;;;;;5109530;28;20443;-80
2023/10/02 04:12:06;;;;;;;6.73;3.30;;;15.00;99.90;;;;;;5108192;28;21040;-80
2023/10/02 04:14:33;;;;;;;4.20;3.00;;;15.00;99.90;;;;;;5107763;28;20444;-81
2023/10/02 04:17:14;;;;;;;6.57;3.60;;;15.00;99.90;;;;;;5107707;28;20473;-80
2023/10/02 04:19:47;;;;;;;6.23;3.50;;;14.90;99.90;;;;;;5095817;28;20558;-89
2023/10/02 04:22:30;;;;;;;5.60;3.23;;;14.80;99.90;;;;;;5089720;28;20476;-80
2023/10/02 04:25:03;;;;;;;5.40;3.93;;;14.70;99.90;;;;;;5088619;28;20708;-79
2023/10/02 04:32:51;;;;;;;8.20;3.70;;;14.50;99.90;;;;;;5109410;28;20383;-89
2023/10/02 04:38:07;;;;;;;6.90;4.20;;;14.40;99.90;;;;;;5103213;28;20472;-80
2023/10/02 04:40:51;;;;;;;6.07;4.07;;;14.30;99.90;;;;;;5087536;28;20468;-89
2023/10/02 04:43:25;;;;;;;9.13;4.30;;;14.30;99.90;;;;;;5087116;28;20569;-84
2023/10/02 04:46:02;;;;;;;10.53;4.67;;;14.20;99.90;;;;;;5096646;28;20813;-87
2023/10/02 04:48:39;;;;;;;5.57;3.80;;;14.20;99.90;;;;;;5098955;28;20436;-89
2023/10/02 04:51:11;;;;;;;10.00;5.17;;;14.20;99.90;;;;;;5086624;28;20448;-79
2023/10/02 04:53:42;;;;;;;9.57;5.30;;;14.10;99.90;;;;;;5087170;28;20440;-80
2023/10/02 04:58:49;;;;;;;8.70;4.07;;;14.10;99.90;;;;;;5101137;28;20526;-80
2023/10/02 05:03:55;;;;;;;10.13;5.07;;;14.00;99.90;;;;;;5087802;28;20429;-84
2023/10/02 05:11:53;;;;;;;17.57;9.20;;;14.30;99.90;;;;;;5086284;28;20798;-78
2023/10/02 05:14:29;;;;;;;14.90;8.27;;;14.30;99.90;;;;;;5091701;28;20436;-79
2023/10/02 05:20:04;;;;;;;12.10;6.83;;;14.40;99.90;;;;;;5088814;28;20828;-80
2023/10/02 05:22:36;;;;;;;11.20;6.17;;;14.50;99.90;;;;;;5097518;28;20961;-88
2023/10/02 05:25:07;;;;;;;8.60;5.20;;;14.50;99.90;;;;;;5092698;28;20810;-87
2023/10/02 05:27:37;;;;;;;6.93;4.93;;;14.50;99.90;;;;;;5089590;28;20869;-79
2023/10/02 05:30:12;;;;;;;7.40;5.23;;;14.60;99.90;;;;;;5095200;28;20440;-80
2023/10/02 05:32:39;;;;;;;8.57;4.23;;;14.70;99.90;;;;;;5089250;28;20556;-79
2023/10/02 05:37:40;;;;;;;7.93;4.50;;;14.80;99.90;;;;;;5102367;28;20430;-88
2023/10/02 05:40:47;;;;;;;8.03;3.93;;;14.90;99.90;;;;;;5094114;28;20517;-88
2023/10/02 05:48:15;;;;;;;10.50;5.97;;;15.10;99.90;;;;;;5092203;28;20192;-85
2023/10/02 05:50:52;;;;;;;10.37;5.63;;;15.30;99.90;;;;;;5097276;28;20433;-79
2023/10/02 05:53:20;;;;;;;10.93;6.70;;;15.40;99.90;;;;;;5090113;28;20517;-79
2023/10/02 05:58:32;;;;;;;6.83;4.77;;;15.50;99.90;;;;;;5089545;28;20418;-79
2023/10/02 06:01:04;;;;;;;7.27;4.87;;;15.60;99.90;;;;;;5087976;28;21026;-85
2023/10/02 06:03:36;;;;;;;9.57;5.57;;;15.60;99.90;;;;;;5093934;28;20428;-86
2023/10/02 06:06:21;;;;;;;12.87;4.80;;;15.70;99.90;;;;;;5091123;27;21075;-85
2023/10/02 06:08:49;;;;;;;7.93;4.63;;;15.80;99.90;;;;;;5085406;27;20448;-79
2023/10/02 06:11:25;;;;;;;6.50;5.07;;;15.90;99.90;;;;;;5097642;28;21308;-79
2023/10/02 06:14:09;;;;;;;4.17;3.70;;;15.90;99.90;;;;;;5084163;28;20522;-79
2023/10/02 06:16:38;;;;;;;5.97;4.40;;;16.00;99.90;;;;;;5102316;28;20489;-85
2023/10/02 06:19:06;;;;;;;8.07;4.63;;;16.10;99.90;;;;;;5094941;28;20526;-85
2023/10/02 06:21:45;;;;;;;8.87;4.43;;;16.20;99.90;;;;;;5096550;27;20889;-79
2023/10/02 06:24:15;;;;;;;6.23;4.33;;;16.40;99.90;;;;;;5090736;28;20429;-79
2023/10/02 06:26:52;;;;;;;8.63;5.30;;;16.40;99.90;;;;;;5093649;28;20408;-79
2023/10/02 06:29:24;;;;;;;5.23;4.30;;;16.60;99.90;;;;;;5096133;28;20455;-85
2023/10/02 06:32:02;;;;;;;7.27;4.20;;;16.70;99.90;;;;;;5094000;28;20788;-86
2023/10/02 06:34:36;;;;;;;6.40;5.07;;;16.80;99.90;;;;;;5089992;28;20790;-88
2023/10/02 06:37:11;;;;;;;7.30;4.30;;;16.90;99.90;;;;;;5095398;28;20488;-80
2023/10/02 06:39:38;;;;;;;5.70;4.57;;;17.00;99.90;;;;;;5096504;28;20484;-88
2023/10/02 06:42:08;;;;;;;8.10;5.23;;;17.10;99.90;;;;;;5082745;28;20414;-80
2023/10/02 06:45:15;;;;;;;7.27;4.70;;;17.20;99.90;;;;;;5080523;28;20845;-88
2023/10/02 06:47:29;;;;;;;7.87;4.87;;;17.30;99.90;;;;;;5097875;28;20419;-86
2023/10/02 06:50:23;;;;;;;5.30;4.33;;;17.40;99.90;;;;;;5098722;28;20562;-87
2023/10/02 06:52:49;;;;;;;8.33;4.60;;;17.50;99.90;;;;;;5095190;28;20828;-87
2023/10/02 06:55:17;;;;;;;11.90;4.67;;;17.60;99.90;;;;;;5085868;28;20452;-88
2023/10/02 06:57:49;;;;;;;5.87;5.00;;;17.70;99.90;;;;;;5085252;28;20247;-86
2023/10/02 07:00:19;;;;;;;8.67;4.90;;;17.80;99.90;;;;;;5081786;28;20470;-80
2023/10/02 07:02:56;;;;;;;7.30;4.83;;;17.90;99.90;;;;;;5097111;28;20854;-89
2023/10/02 07:05:34;;;;;;;8.70;5.47;;;18.00;99.90;;;;;;5090008;28;20845;-79
2023/10/02 07:08:18;;;;;;;7.60;4.50;;;18.10;99.90;;;;;;5086792;28;20436;-79
2023/10/02 07:10:44;;;;;;;7.07;4.73;;;18.20;99.90;;;;;;5088204;28;20855;-89
2023/10/02 07:13:20;;;;;;;8.50;4.30;;;18.30;99.90;;;;;;5090938;28;20448;-89
2023/10/02 07:15:47;;;;;;;7.10;4.87;;;18.40;99.90;;;;;;5090558;28;21174;-80
2023/10/02 07:18:14;;;;;;;11.73;5.00;;;18.50;99.90;;;;;;5093559;28;20852;-81
2023/10/02 07:20:43;;;;;;;11.67;7.60;;;18.60;99.90;;;;;;5085827;28;20857;-80
2023/10/02 07:23:19;;;;;;;12.67;8.30;;;18.70;99.90;;;;;;5086891;28;20485;-81
2023/10/02 07:25:51;;;;;;;10.53;7.17;;;18.80;99.90;;;;;;5085485;28;21016;-82
2023/10/02 07:28:23;;;;;;;11.60;7.50;;;18.90;99.90;;;;;;5083579;28;20720;-83
2023/10/02 07:30:53;;;;;;;10.77;7.20;;;19.00;99.90;;;;;;5087552;28;20449;-83
2023/10/02 07:33:19;;;;;;;14.00;8.40;;;19.10;99.90;;;;;;5074515;28;20446;-82
2023/10/02 07:35:52;;;;;;;11.97;8.20;;;19.20;99.90;;;;;;5083458;28;20512;-82
2023/10/02 07:38:22;;;;;;;11.10;7.37;;;19.30;99.90;;;;;;5082494;28;20522;-82
2023/10/02 07:40:49;;;;;;;11.60;8.57;;;19.50;99.90;;;;;;5085626;28;20494;-82
2023/10/02 07:43:18;;;;;;;10.00;7.93;;;19.60;99.90;;;;;;5088859;27;20967;-82
2023/10/02 07:48:36;;;;;;;14.60;7.20;;;19.70;99.90;;;;;;5085865;28;20513;-82
2023/10/02 07:51:06;;;;;;;8.80;6.47;;;19.80;99.90;;;;;;5092358;28;20986;-82
2023/10/02 07:53:40;;;;;;;11.03;7.50;;;19.90;99.90;;;;;;5094269;28;20439;-85
2023/10/02 07:56:11;;;;;;;12.83;6.50;;;20.20;99.90;;;;;;5093321;28;20492;-85
2023/10/02 07:58:41;;;;;;;7.00;5.53;;;20.50;99.90;;;;;;5090382;28;20424;-84
2023/10/02 08:01:11;;;;;;;9.27;5.90;;;21.00;99.90;;;;;;5093343;28;20468;-88
2023/10/02 08:03:43;;;;;;;7.40;4.80;;;21.40;99.90;;;;;;5084933;28;20530;-81
2023/10/02 08:06:22;;;;;;;7.97;5.07;;;22.00;99.90;;;;;;5091125;28;20483;-84
2023/10/02 08:11:42;;;;;;;8.77;4.73;;;23.40;99.90;;;;;;5095308;28;20447;-83
2023/10/02 08:14:34;;;;;;;6.80;4.13;;;24.20;99.90;;;;;;5094902;28;20451;-85
2023/10/02 08:17:00;;;;;;;6.03;3.77;;;24.80;99.90;;;;;;5087482;28;20470;-82
2023/10/02 08:19:27;;;;;;;7.17;3.80;;;25.80;99.90;;;;;;5098355;28;21038;-82
2023/10/02 08:21:53;;;;;;;7.10;3.43;;;26.50;99.90;;;;;;5092628;28;20440;-83
2023/10/02 08:24:20;;;;;;;7.03;3.30;;;27.10;98.70;;;;;;5088515;28;20439;-84
2023/10/02 08:26:47;;;;;;;6.67;4.20;;;27.70;97.20;;;;;;5096956;28;20717;-84
2023/10/02 08:29:14;;;;;;;5.07;2.93;;;28.20;95.90;;;;;;5084706;28;20495;-84
2023/10/02 08:31:47;;;;;;;4.00;3.00;;;28.60;95.30;;;;;;5093308;28;20420;-84
2023/10/02 08:34:19;;;;;;;5.27;3.17;;;29.20;93.60;;;;;;5090286;28;20439;-84
2023/10/02 08:36:47;;;;;;;4.30;2.97;;;29.60;92.50;;;;;;5089081;28;20428;-84
2023/10/02 08:39:20;;;;;;;3.50;2.90;;;30.00;92.20;;;;;;5087976;28;20892;-84
2023/10/02 08:41:50;;;;;;;4.50;2.80;;;30.40;91.00;;;;;;5093444;28;20446;-84
2023/10/02 08:44:17;;;;;;;4.90;3.53;;;30.50;90.20;;;;;;5090954;27;20853;-84
2023/10/02 08:46:43;;;;;;;5.20;2.97;;;30.30;90.40;;;;;;5088025;28;21068;-84
2023/10/02 08:49:12;;;;;;;3.50;2.40;;;29.90;91.10;;;;;;5093247;28;20438;-84
2023/10/02 08:51:38;;;;;;;4.53;2.47;;;29.50;90.00;;;;;;5087635;28;20515;-84
2023/10/02 08:54:05;;;;;;;4.30;2.40;;;29.00;90.10;;;;;;5086806;28;20950;-84
2023/10/02 08:56:43;;;;;;;2.93;2.50;;;28.30;88.90;;;;;;5087588;27;20799;-83
2023/10/02 08:59:35;;;;;;;5.83;2.97;;;27.50;89.20;;;;;;5084474;28;20849;-84
2023/10/02 09:02:15;;;;;;;2.87;2.50;;;26.80;90.50;;;;;;5087841;28;20436;-84
2023/10/02 09:05:09;;;;;;;4.90;2.90;;;26.00;90.60;;;;;;5092013;28;20556;-83
2023/10/02 09:10:25;;;;;;;3.80;3.10;;;25.10;91.90;;;;;;5085737;28;20961;-84
2023/10/02 09:13:14;;;;;;;3.83;2.50;;;24.80;92.00;;;;;;5088704;28;20500;-82
2023/10/02 09:15:48;;;;;;;3.97;2.70;;;24.60;92.50;;;;;;5089506;28;21731;-83
2023/10/02 09:19:07;;;;;;;3.73;2.73;;;24.40;93.00;;;;;;5085271;28;20463;-83
2023/10/02 09:21:22;;;;;;;6.77;2.20;;;24.30;93.40;;;;;;5088967;28;20785;-83
2023/10/02 09:23:52;;;;;;;4.93;2.73;;;24.20;93.10;;;;;;5082169;28;20419;-83
2023/10/02 09:26:26;;;;;;;5.03;2.43;;;24.10;93.30;;;;;;5083178;28;20464;-83
2023/10/02 09:29:00;;;;;;;5.00;2.50;;;23.90;93.30;;;;;;5091001;28;20481;-84
2023/10/02 09:31:34;;;;;;;4.40;2.53;;;23.80;93.50;;;;;;5090359;28;20459;-83
2023/10/02 09:34:10;;;;;;;4.03;3.13;;;23.90;93.70;;;;;;5092372;28;21128;-83
2023/10/02 09:36:47;;;;;;;2.50;2.20;;;24.00;93.50;;;;;;5084315;28;20431;-83
2023/10/02 09:39:36;;;;;;;3.83;2.60;;;23.90;93.60;;;;;;5090441;28;20474;-83
2023/10/02 09:42:06;;;;;;;5.60;2.37;;;24.00;93.50;;;;;;5085061;28;20429;-83
2023/10/02 09:44:48;;;;;;;3.70;2.00;;;24.10;93.80;;;;;;5092751;28;20455;-83
2023/10/02 09:47:21;;;;;;;4.70;2.30;;;24.30;93.60;;;;;;5090693;28;20413;-83
2023/10/02 09:50:23;;;;;;;5.07;3.73;;;24.60;93.50;;;;;;5090110;28;20459;-84
2023/10/02 09:52:59;;;;;;;3.53;2.33;;;24.70;93.20;;;;;;5096563;28;20456;-83
2023/10/02 09:55:37;;;;;;;5.47;2.20;;;24.60;92.60;;;;;;5091823;28;20435;-83
2023/10/02 09:58:05;;;;;;;3.33;2.47;;;24.40;92.70;;;;;;5092678;28;20973;-84
2023/10/02 10:00:39;;;;;;;5.60;3.00;;;24.20;93.20;;;;;;5092828;28;20620;-83
2023/10/02 10:03:30;;;;;;;5.30;2.47;;;24.20;93.60;;;;;;5093458;28;20491;-83
2023/10/02 10:06:16;;;;;;;3.47;2.40;;;24.10;93.30;;;;;;5088143;28;20463;-83
2023/10/02 10:14:42;;;;;;;3.20;2.33;;;23.90;93.50;;;;;;5094840;28;20497;-83
2023/10/02 10:17:17;;;;;;;4.77;2.40;;;23.80;93.30;;;;;;5086498;28;20432;-83
2023/10/02 10:20:08;;;;;;;4.20;2.83;;;23.80;93.10;;;;;;5086368;28;20212;-83
2023/10/02 10:22:35;;;;;;;5.80;3.00;;;23.80;93.30;;;;;;5089225;28;20493;-83
2023/10/02 10:27:42;;;;;;;4.40;2.80;;;23.80;93.30;;;;;;5100475;28;21180;-83
2023/10/02 10:35:51;;;;;;;3.00;2.47;;;23.80;93.20;;;;;;5094765;27;20463;-82
2023/10/02 10:38:26;;;;;;;5.93;2.63;;;23.80;93.20;;;;;;5094014;28;20573;-81
2023/10/02 10:40:59;;;;;;;6.90;2.57;;;23.90;93.40;;;;;;5091075;27;20652;-81
2023/10/02 10:46:29;;;;;;;2.90;2.33;;;24.00;94.50;;;;;;5088142;28;20527;-81
2023/10/02 10:49:07;;;;;;;3.30;2.50;;;24.00;94.30;;;;;;5083113;28;20442;-81
2023/10/02 10:51:36;;;;;;;3.97;2.30;;;24.00;93.60;;;;;;5095840;28;20504;-81
2023/10/02 10:54:13;;;;;;;3.60;2.53;;;24.00;93.50;;;;;;5088679;28;20486;-81
2023/10/02 10:56:46;;;;;;;3.87;2.33;;;24.10;93.20;;;;;;5087770;28;20853;-81
2023/10/02 10:59:21;;;;;;;4.80;2.70;;;24.00;93.40;;;;;;5087950;28;20431;-81
2023/10/02 11:04:34;;;;;;;5.10;2.30;;;24.10;93.50;;;;;;5088298;28;20861;-81
2023/10/02 11:07:19;;;;;;;4.00;3.10;;;24.10;93.40;;;;;;5087574;28;20591;-81
2023/10/02 11:10:14;;;;;;;3.40;2.23;;;24.10;93.30;;;;;;5086826;28;20447;-80
2023/10/02 11:12:38;;;;;;;3.60;2.73;;;24.20;93.70;;;;;;5084474;28;20428;-82
2023/10/02 11:15:15;;;;;;;6.63;3.20;;;24.10;93.50;;;;;;5084168;28;21018;-81
2023/10/02 11:17:42;;;;;;;5.30;3.20;;;24.00;93.30;;;;;;5080528;28;20451;-81
2023/10/02 11:20:09;;;;;;;3.10;2.40;;;24.00;93.70;;;;;;5081980;28;20896;-81
2023/10/02 11:22:51;;;;;;;3.60;2.80;;;23.90;93.80;;;;;;5086392;28;20428;-80
2023/10/02 11:25:20;;;;;;;6.43;2.47;;;24.00;94.20;;;;;;5090142;28;20560;-82
2023/10/02 11:27:56;;;;;;;3.63;2.63;;;24.00;93.50;;;;;;5086199;28;20971;-81
2023/10/02 11:30:31;;;;;;;3.13;2.47;;;24.00;93.60;;;;;;5084933;28;20439;-81
2023/10/02 11:33:04;;;;;;;3.30;2.47;;;24.00;93.60;;;;;;5092692;28;20437;-81
2023/10/02 11:35:37;;;;;;;3.27;2.10;;;24.00;93.70;;;;;;5091561;28;20483;-81
2023/10/02 11:38:07;;;;;;;4.77;2.60;;;24.00;93.70;;;;;;5090441;28;20479;-81
2023/10/02 11:40:35;;;;;;;3.93;2.73;;;24.00;93.20;;;;;;5088011;28;20577;-81
2023/10/02 11:43:01;;;;;;;4.93;2.70;;;24.00;93.30;;;;;;5097837;28;20423;-82
2023/10/02 11:45:29;;;;;;;4.27;2.40;;;24.00;93.40;;;;;;5095299;28;21104;-82
2023/10/02 11:47:55;;;;;;;4.47;3.30;;;24.10;93.30;;;;;;5101425;28;20597;-81
2023/10/02 11:50:23;;;;;;;6.50;3.50;;;24.10;93.30;;;;;;5086324;28;20517;-81
2023/10/02 11:52:49;;;;;;;4.20;2.50;;;24.00;93.40;;;;;;5093681;28;20434;-81
2023/10/02 11:55:18;;;;;;;3.80;2.37;;;24.00;92.80;;;;;;5087694;28;20608;-81
2023/10/02 11:57:51;;;;;;;4.47;2.40;;;23.90;93.30;;;;;;5090530;28;20434;-81
2023/10/02 12:00:22;;;;;;;4.47;2.57;;;23.80;93.10;;;;;;5084625;28;20981;-81
2023/10/02 12:02:49;;;;;;;3.80;2.63;;;23.90;93.40;;;;;;5096244;28;20828;-81
2023/10/02 12:05:17;;;;;;;4.43;2.33;;;24.00;93.50;;;;;;5097703;28;20583;-81
2023/10/02 12:07:44;;;;;;;4.00;2.57;;;24.00;93.70;;;;;;5089634;28;20931;-81
2023/10/02 12:10:15;;;;;;;4.60;3.03;;;24.10;93.60;;;;;;5095028;28;20468;-81
2023/10/02 12:12:45;;;;;;;6.97;3.23;;;24.10;93.50;;;;;;5088213;28;20443;-81
2023/10/02 12:15:13;;;;;;;5.17;2.67;;;24.20;93.50;;;;;;5081845;28;20968;-81
2023/10/02 12:17:39;;;;;;;3.90;2.40;;;24.30;93.60;;;;;;5085846;28;20514;-82
2023/10/02 12:20:10;;;;;;;3.87;2.70;;;24.20;94.60;;;;;;5085019;28;20579;-80
2023/10/02 12:22:36;;;;;;;3.33;2.27;;;24.20;95.10;;;;;;5085343;28;20193;-81
2023/10/02 12:25:04;;;;;;;5.10;2.43;;;24.20;95.40;;;;;;5091772;28;20812;-81
2023/10/02 12:27:30;;;;;;;3.70;2.30;;;24.30;94.80;;;;;;5086730;28;20568;-81
2023/10/02 12:29:58;;;;;;;3.13;1.90;;;24.30;94.70;;;;;;5099463;28;20557;-83
2023/10/02 12:32:24;;;;;;;4.87;2.40;;;24.30;94.30;;;;;;5098809;28;20407;-81
2023/10/02 12:34:50;;;;;;;4.23;3.20;;;24.40;94.60;;;;;;5096157;28;20458;-85
2023/10/02 12:37:18;;;;;;;5.03;2.60;;;24.40;93.90;;;;;;5085080;28;20807;-82
2023/10/02 12:39:47;;;;;;;3.80;2.43;;;24.50;94.20;;;;;;5108653;27;20493;-82
2023/10/02 12:42:13;;;;;;;7.40;2.30;;;24.50;94.70;;;;;;5087047;28;21080;-85
2023/10/02 12:44:40;;;;;;;3.87;2.57;;;24.50;94.50;;;;;;5087194;28;20454;-82
2023/10/02 12:47:06;;;;;;;2.67;2.37;;;24.60;93.90;;;;;;5095212;28;20176;-84
2023/10/02 12:49:35;;;;;;;4.60;2.80;;;24.60;94.60;;;;;;5093814;28;20985;-83
2023/10/02 12:52:00;;;;;;;3.90;2.67;;;24.60;94.80;;;;;;5094924;28;20517;-86
2023/10/02 12:54:27;;;;;;;6.53;2.27;;;24.60;94.30;;;;;;5089548;28;20947;-82
2023/10/02 12:56:53;;;;;;;3.73;2.57;;;24.60;94.10;;;;;;5084388;28;20525;-86
2023/10/02 12:59:19;;;;;;;3.60;2.20;;;24.70;94.30;;;;;;5087402;28;20515;-85
2023/10/02 13:01:45;;;;;;;2.77;2.43;;;24.70;94.00;;;;;;5095580;28;20593;-85
2023/10/02 13:04:12;;;;;;;6.03;2.37;;;24.70;93.30;;;;;;5095527;28;20260;-83
2023/10/02 13:06:38;;;;;;;4.20;3.00;;;24.80;93.20;;;;;;5099869;28;20433;-87
2023/10/02 13:09:18;;;;;;;4.43;2.47;;;24.80;93.10;;;;;;5094138;28;20440;-83
2023/10/02 13:11:47;;;;;;;4.50;2.53;;;24.80;92.90;;;;;;5105252;28;20254;-84
2023/10/02 13:14:12;;;;;;;3.57;2.60;;;24.80;93.00;;;;;;5102952;28;21020;-83
2023/10/02 13:16:42;;;;;;;7.30;3.23;;;24.80;93.10;;;;;;5092869;28;20452;-84
2023/10/02 13:19:09;;;;;;;4.23;2.67;;;24.80;93.30;;;;;;5096998;28;20186;-85
2023/10/02 13:21:37;;;;;;;4.07;2.43;;;24.90;93.40;;;;;;5097327;28;20478;-83
2023/10/02 13:24:05;;;;;;;6.07;3.30;;;24.90;92.90;;;;;;5103254;28;20431;-83
2023/10/02 13:26:31;;;;;;;4.37;3.40;;;24.90;93.50;;;;;;5105808;28;20816;-84
2023/10/02 13:28:56;;;;;;;2.93;2.53;;;24.90;93.50;;;;;;5094578;28;20546;-85
2023/10/02 13:31:24;;;;;;;3.83;2.40;;;24.90;93.20;;;;;;5088590;28;20452;-84
2023/10/02 13:33:52;;;;;;;4.07;2.63;;;24.90;92.90;;;;;;5102658;28;20267;-85
2023/10/02 13:36:22;;;;;;;3.93;2.23;;;25.00;93.00;;;;;;5095761;28;20453;-84
2023/10/02 13:38:56;;;;;;;3.43;2.30;;;24.90;93.10;;;;;;5092892;28;20563;-84
2023/10/02 13:41:22;;;;;;;7.37;2.87;;;25.00;92.40;;;;;;5096240;28;20539;-85
2023/10/02 13:43:49;;;;;;;2.97;2.60;;;24.90;92.60;;;;;;5098524;28;20816;-84
2023/10/02 13:46:16;;;;;;;4.47;2.87;;;24.90;92.70;;;;;;5096617;28;20478;-85
2023/10/02 13:48:46;;;;;;;3.93;2.50;;;24.90;92.90;;;;;;5095058;28;20436;-84
2023/10/02 13:51:13;;;;;;;4.30;2.60;;;24.90;92.90;;;;;;5088928;28;21216;-85
2023/10/02 13:53:40;;;;;;;2.80;2.33;;;24.90;92.70;;;;;;5090359;28;20943;-85
2023/10/02 13:56:17;;;;;;;5.00;2.83;;;24.90;92.70;;;;;;5095570;28;20828;-85
2023/10/02 13:58:50;;;;;;;4.63;2.63;;;24.90;92.70;;;;;;5088372;28;20428;-84
2023/10/02 14:01:21;;;;;;;3.90;2.57;;;24.90;93.00;;;;;;5094422;28;20960;-85
2023/10/02 14:03:51;;;;;;;5.20;2.10;;;24.90;92.70;;;;;;5084949;28;20481;-83
2023/10/02 14:06:19;;;;;;;6.47;2.70;;;24.90;92.90;;;;;;5093694;28;20941;-83
2023/10/02 14:08:45;;;;;;;2.20;1.97;;;24.90;92.90;;;;;;5085607;28;20436;-83
2023/10/02 14:11:19;;;;;;;5.40;3.00;;;25.00;92.90;;;;;;5092067;28;20440;-86
2023/10/02 14:13:48;;;;;;;3.27;2.47;;;25.00;92.80;;;;;;5092883;28;20775;-85
2023/10/02 14:16:21;;;;;;;3.90;2.90;;;25.00;92.70;;;;;;5078911;28;20435;-84
2023/10/02 14:18:51;;;;;;;5.27;2.53;;;25.00;92.80;;;;;;5082143;28;21205;-85